Time;durP1;ratioP1;P1;durP2;ratioP2;P2;SDS_P1;SDS_P2;PMS_P1;PMS_P2;Temp;Humidity;BMP_temperature;BMP_pressure;BME280_temperature;BME280_humidity;BME280_pressure;Samples;Min_cycle;Max_cycle;Signal;HPM_P1;HPM_P2
2024/03/28 00:02:12;;;;;;;;;;;;;;;12.35;65.00;97608.40;128653;1276;129673;-63
2024/03/28 00:05:17;;;;;;;7.70;4.40;;;;;;;12.32;64.94;97602.21;128288;1257;114166;-63
2024/03/28 00:08:22;;;;;;;10.20;3.80;;;;;;;12.28;64.77;97597.92;128709;1253;113515;-63
2024/03/28 00:11:30;;;;;;;8.20;3.80;;;;;;;12.26;64.89;97597.98;128620;1257;113547;-63
2024/03/28 00:14:33;;;;;;;6.30;3.90;;;;;;;12.24;64.94;97595.09;128680;1254;113611;-63
2024/03/28 00:17:41;;;;;;;6.40;2.80;;;;;;;12.23;65.22;97584.38;128332;1260;128804;-63
2024/03/28 00:20:45;;;;;;;;;;;;;;;12.22;65.46;97578.90;128667;1257;114459;-63
2024/03/28 00:23:55;;;;;;;4.40;2.50;;;;;;;12.24;65.49;97566.60;128646;1254;113446;-63
2024/03/28 00:27:05;;;;;;;6.90;3.90;;;;;;;12.27;65.92;97563.88;128601;1254;113519;-64
2024/03/28 00:30:11;;;;;;;4.80;3.20;;;;;;;12.30;66.06;97557.90;128802;1253;113593;-63
2024/03/28 00:33:18;;;;;;;7.80;4.00;;;;;;;12.33;66.04;97556.81;128601;1276;128305;-64
2024/03/28 00:36:24;;;;;;;8.80;3.80;;;;;;;12.36;65.66;97550.83;128356;1254;113675;-64
2024/03/28 00:39:33;;;;;;;11.20;3.60;;;;;;;12.37;65.84;97545.34;128650;1253;113632;-64
2024/03/28 00:42:38;;;;;;;5.00;3.10;;;;;;;12.38;66.01;97543.67;128712;1253;114734;-63
2024/03/28 00:45:43;;;;;;;6.30;4.30;;;;;;;12.38;66.10;97536.02;128633;1253;114323;-64
2024/03/28 00:48:46;;;;;;;6.00;3.10;;;;;;;12.38;66.33;97536.31;128590;1276;128864;-63
2024/03/28 00:51:51;;;;;;;7.90;3.30;;;;;;;12.38;66.01;97531.32;128389;1254;113963;-64
2024/03/28 00:54:55;;;;;;;;;;;;;;;12.38;66.26;97526.48;128524;1254;113498;-61
2024/03/28 00:58:04;;;;;;;8.20;3.60;;;;;;;12.36;66.22;97524.73;128447;1254;113688;-64
2024/03/28 01:01:10;;;;;;;8.40;3.40;;;;;;;12.34;66.57;97527.61;128342;1254;113498;-64
2024/03/28 01:04:19;;;;;;;6.40;3.00;;;;;;;12.30;66.51;97523.17;128646;1276;128796;-64
2024/03/28 01:07:23;;;;;;;8.10;4.10;;;;;;;12.28;66.39;97515.64;128571;1254;115453;-64
2024/03/28 01:10:29;;;;;;;6.30;3.90;;;;;;;12.28;66.77;97511.52;128697;1253;113556;-64
2024/03/28 01:13:33;;;;;;;5.60;2.90;;;;;;;12.29;66.93;97514.11;128583;1254;113555;-64
2024/03/28 01:16:43;;;;;;;7.20;3.20;;;;;;;12.30;66.86;97515.22;128784;1253;113505;-64
2024/03/28 01:19:49;;;;;;;5.30;3.00;;;;;;;12.34;67.10;97515.45;128459;1276;127919;-63
2024/03/28 01:22:54;;;;;;;9.70;3.60;;;;;;;12.36;67.29;97516.13;128650;1254;113875;-63
2024/03/28 01:26:05;;;;;;;6.10;2.60;;;;;;;12.38;67.12;97513.42;128589;1253;113622;-64
2024/03/28 01:29:09;;;;;;;10.30;3.60;;;;;;;12.41;67.19;97511.34;128704;1254;113555;-64
2024/03/28 01:32:16;;;;;;;6.00;3.90;;;;;;;12.44;67.28;97511.55;128679;1257;113470;-64
2024/03/28 01:35:21;;;;;;;9.50;3.20;;;;;;;12.47;67.08;97504.30;128658;1253;128730;-64
2024/03/28 01:38:27;;;;;;;7.90;4.00;;;;;;;12.50;67.13;97505.22;128768;1257;113835;-63
2024/03/28 01:41:36;;;;;;;8.90;3.20;;;;;;;12.53;66.90;97498.27;128820;1254;113610;-63
2024/03/28 01:44:43;;;;;;;8.10;4.00;;;;;;;12.56;67.23;97492.04;128600;1254;113508;-64
2024/03/28 01:47:47;;;;;;;8.00;4.20;;;;;;;12.60;67.04;97500.98;128747;1253;113583;-64
2024/03/28 01:50:55;;;;;;;6.50;3.20;;;;;;;12.63;66.87;97496.58;128741;1253;128765;-64
2024/03/28 01:53:59;;;;;;;5.90;3.60;;;;;;;12.66;66.75;97488.52;128629;1259;114768;-63
2024/03/28 01:57:04;;;;;;;7.10;3.10;;;;;;;12.70;66.79;97482.53;128839;1257;113484;-64
2024/03/28 02:00:13;;;;;;;8.70;3.90;;;;;;;12.73;66.68;97473.63;128618;1253;113548;-64
2024/03/28 02:03:21;;;;;;;7.70;3.70;;;;;;;12.78;66.70;97471.56;128561;1253;113538;-63
2024/03/28 02:06:24;;;;;;;8.40;3.40;;;;;;;12.83;66.65;97467.50;128561;1257;128804;-63
2024/03/28 02:09:33;;;;;;;5.50;2.70;;;;;;;12.87;66.60;97465.64;128674;1257;114033;-63
2024/03/28 02:12:42;;;;;;;11.20;4.20;;;;;;;12.90;66.40;97465.11;128691;1253;113481;-64
2024/03/28 02:15:48;;;;;;;8.10;4.30;;;;;;;12.92;66.55;97467.50;128714;1253;115469;-64
2024/03/28 02:18:59;;;;;;;6.00;3.10;;;;;;;12.95;66.38;97464.40;128696;1256;113460;-63
2024/03/28 02:22:03;;;;;;;6.90;3.70;;;;;;;12.96;66.46;97468.77;128662;1256;129014;-64
2024/03/28 02:25:12;;;;;;;7.10;3.30;;;;;;;12.98;66.41;97461.62;128660;1253;113641;-64
2024/03/28 02:28:17;;;;;;;8.60;3.10;;;;;;;12.99;66.26;97460.98;128743;1253;113436;-64
2024/03/28 02:31:23;;;;;;;10.00;3.50;;;;;;;12.99;66.21;97455.60;128735;1257;113436;-63
2024/03/28 02:34:27;;;;;;;7.00;3.90;;;;;;;13.00;66.14;97449.42;128791;1254;113490;-63
2024/03/28 02:37:32;;;;;;;9.80;3.20;;;;;;;12.99;66.01;97447.84;129414;1254;127721;-64
2024/03/28 02:40:41;;;;;;;8.90;4.30;;;;;;;12.99;66.11;97439.08;128644;1256;114270;-64
2024/03/28 02:43:43;;;;;;;7.60;3.00;;;;;;;12.99;66.15;97437.66;131885;1253;115036;-63
2024/03/28 02:46:49;;;;;;;;;;;;;;;13.00;66.21;97441.70;128746;1253;113506;-64
2024/03/28 02:49:56;;;;;;;11.80;3.40;;;;;;;12.99;66.27;97444.25;128693;1254;113526;-64
2024/03/28 02:53:03;;;;;;;9.00;3.80;;;;;;;13.00;66.17;97453.09;128593;1257;128879;-64
2024/03/28 02:56:10;;;;;;;10.10;3.60;;;;;;;13.01;66.29;97454.66;128467;1260;114438;-65
2024/03/28 02:59:14;;;;;;;10.80;4.30;;;;;;;13.02;66.45;97451.98;128697;1253;113483;-64
2024/03/28 03:02:23;;;;;;;12.00;4.00;;;;;;;13.04;66.31;97442.63;128634;1254;113509;-64
2024/03/28 03:05:30;;;;;;;11.50;3.60;;;;;;;13.06;66.37;97434.92;128594;1254;113562;-64
2024/03/28 03:08:38;;;;;;;10.00;3.80;;;;;;;13.07;66.30;97429.77;128688;1276;128609;-63
2024/03/28 03:11:44;;;;;;;9.40;3.00;;;;;;;13.08;66.32;97421.30;128695;1257;114729;-64
2024/03/28 03:14:51;;;;;;;8.40;3.80;;;;;;;13.08;66.32;97422.39;128695;1252;113525;-63
2024/03/28 03:17:59;;;;;;;13.80;5.20;;;;;;;13.07;66.34;97424.84;128693;1253;114681;-63
2024/03/28 03:21:07;;;;;;;9.30;4.00;;;;;;;13.06;66.17;97425.44;128707;1254;113585;-63
2024/03/28 03:24:13;;;;;;;9.20;2.60;;;;;;;13.06;66.35;97427.42;128707;1254;128793;-63
2024/03/28 03:27:20;;;;;;;8.30;3.20;;;;;;;13.05;66.39;97424.09;128348;1258;113895;-63
2024/03/28 03:37:23;;;;;;;9.50;3.60;;;;;;;13.03;66.47;97417.83;128661;1253;113562;-63
2024/03/28 03:40:27;;;;;;;10.70;3.40;;;;;;;13.03;66.65;97414.44;128361;1257;128850;-63
2024/03/28 03:43:32;;;;;;;;;;;;;;;13.03;66.70;97418.02;128725;1254;113906;-63
2024/03/28 03:46:40;;;;;;;11.50;3.20;;;;;;;13.03;66.69;97416.83;128696;1253;113439;-63
2024/03/28 03:49:47;;;;;;;10.00;4.00;;;;;;;13.04;66.85;97417.36;128686;1253;113675;-64
2024/03/28 03:52:51;;;;;;;;;;;;;;;13.06;67.08;97417.35;128706;1253;113547;-63
2024/03/28 03:55:59;;;;;;;12.40;4.00;;;;;;;13.07;67.93;97422.13;128575;1276;128854;-64
2024/03/28 03:59:06;;;;;;;10.80;3.60;;;;;;;13.06;68.57;97429.60;128719;1257;114316;-64
2024/03/28 04:02:16;;;;;;;11.90;4.10;;;;;;;13.02;69.10;97429.77;128607;1253;113520;-64
2024/03/28 04:06:10;;;;;;;10.50;4.60;;;;;;;12.98;69.41;97425.77;130268;1252;113222;-66
2024/03/28 04:09:55;;;;;;;;;;;;;;;;;;;;;
2024/03/28 04:13:50;;;;;;;;;;;;;;;;;;;;;
2024/03/28 04:21:38;;;;;;;13.50;4.50;;;;;;;12.79;71.33;97418.95;127868;1282;114990;-67
2024/03/28 04:25:38;;;;;;;18.20;5.70;;;;;;;12.75;71.63;97421.45;127454;1282;115065;-65
2024/03/28 04:29:33;;;;;;;10.60;3.90;;;;;;;12.74;71.61;97421.13;126809;1294;114901;-66
2024/03/28 04:33:34;;;;;;;11.40;4.10;;;;;;;12.73;71.62;97430.13;126741;1291;130647;-66
2024/03/28 04:42:09;;;;;;;15.50;5.10;;;;;;;12.80;71.57;97421.58;126356;1294;639561;-67
2024/03/28 04:46:12;;;;;;;15.60;4.70;;;;;;;12.81;71.76;97424.31;127812;1286;127775;-67
2024/03/28 04:54:00;;;;;;;;;;;;;;;;;;;;;
2024/03/28 04:58:27;;;;;;;18.60;5.10;;;;;;;12.95;71.31;97428.39;125888;1296;115172;-65
2024/03/28 05:02:19;;;;;;;10.10;4.30;;;;;;;12.99;71.58;97426.00;125748;1307;114952;-66
2024/03/28 05:06:00;;;;;;;;;;;;;;;13.02;71.64;97414.54;125366;1311;114979;-66
2024/03/28 05:14:27;;;;;;;17.90;5.00;;;;;;;13.11;71.35;97397.71;126022;1301;636526;-66
2024/03/28 05:18:30;;;;;;;17.00;5.00;;;;;;;13.12;71.37;97388.80;127859;1286;129117;-66
2024/03/28 05:22:34;;;;;;;21.00;5.50;;;;;;;13.14;71.34;97390.42;126619;1298;114957;-66
2024/03/28 05:30:53;;;;;;;;;;;;;;;;;;;;;
2024/03/28 05:34:49;;;;;;;19.60;5.40;;;;;;;13.21;71.34;97391.91;127364;1289;128012;-66
2024/03/28 05:38:51;;;;;;;18.60;5.90;;;;;;;13.23;71.34;97402.30;126697;1309;114965;-66
2024/03/28 05:42:52;;;;;;;24.20;7.40;;;;;;;13.27;71.58;97412.48;122073;1315;5534654;-67
2024/03/28 05:46:52;;;;;;;31.40;5.70;;;;;;;13.33;71.59;97424.77;124970;1323;114963;-67
2024/03/28 05:50:39;;;;;;;18.00;5.30;;;;;;;13.38;71.74;97427.96;124194;1310;115096;-67
2024/03/28 05:58:58;;;;;;;;;;;;;;;;;;;;;
2024/03/28 06:02:54;;;;;;;;;;;;;;;;;;;;;
2024/03/28 06:06:58;;;;;;;21.90;7.50;;;;;;;13.55;71.74;97410.80;126903;1302;114854;-67
2024/03/28 06:10:45;;;;;;;;;;;;;;;;;;;;;
2024/03/28 06:18:55;;;;;;;15.30;5.90;;;;;;;13.67;72.06;97407.44;126616;1296;114933;-66
2024/03/28 06:22:55;;;;;;;6.90;2.60;;;;;;;13.75;72.31;97402.50;125965;1307;114944;-66
2024/03/28 06:31:24;;;;;;;19.40;5.90;;;;;;;14.06;71.76;97403.38;126127;1298;639068;-67
2024/03/28 06:39:10;;;;;;;;;;;;;;;14.27;71.20;97392.18;126090;1298;114886;-70
2024/03/28 06:43:05;;;;;;;13.50;3.90;;;;;;;14.42;70.98;97395.67;121719;1305;5490220;-67
2024/03/28 06:46:54;;;;;;;16.30;4.00;;;;;;;14.55;70.29;97416.06;124312;1312;116197;-66
2024/03/28 06:50:28;;;;;;;;;;;;;;;;;;;;;
2024/03/28 06:54:15;;;;;;;17.20;4.10;;;;;;;14.55;69.81;97437.83;124008;1319;129757;-67
2024/03/28 07:02:35;;;;;;;8.10;3.40;;;;;;;14.48;69.58;97447.65;125823;1300;639643;-67
2024/03/28 07:06:31;;;;;;;12.80;4.60;;;;;;;14.40;69.44;97461.43;128584;1279;126961;-67
2024/03/28 07:10:14;;;;;;;15.20;3.60;;;;;;;14.36;69.75;97469.73;127771;1285;114806;-67
2024/03/28 07:14:16;;;;;;;13.90;3.10;;;;;;;14.35;69.75;97458.03;127596;1293;114891;-67
2024/03/28 07:17:55;;;;;;;;;;;;;;;;;;;;;
2024/03/28 07:21:57;;;;;;;7.80;1.90;;;;;;;14.30;69.82;97451.42;127799;1302;114833;-67
2024/03/28 07:30:19;;;;;;;5.00;1.60;;;;;;;14.28;69.11;97458.81;126773;1292;636598;-68
2024/03/28 07:34:21;;;;;;;4.70;1.50;;;;;;;14.23;68.70;97468.36;128325;1298;130174;-66
2024/03/28 07:38:21;;;;;;;2.80;1.70;;;;;;;14.19;68.70;97479.02;127235;1301;114921;-65
2024/03/28 07:42:23;;;;;;;2.60;1.20;;;;;;;14.14;68.64;97480.67;121191;1295;7587943;-66
2024/03/28 07:50:40;;;;;;;3.00;1.50;;;;;;;14.07;68.39;97505.66;125970;1297;636034;-66
2024/03/28 07:54:43;;;;;;;1.60;1.00;;;;;;;14.07;68.54;97511.90;128701;1273;128846;-66
2024/03/28 07:58:09;;;;;;;;;;;;;;;;;;;;;
2024/03/28 08:01:55;;;;;;;;;;;;;;;;;;;;;
2024/03/28 08:05:59;;;;;;;1.70;1.00;;;;;;;14.20;67.95;97496.70;123064;1288;114937;-67
2024/03/28 08:09:59;;;;;;;2.90;0.70;;;;;;;14.26;67.32;97516.81;125783;1310;115058;-67
2024/03/28 08:13:02;;;;;;;1.60;0.70;;;;;;;14.19;66.74;97547.55;125252;1326;114984;-68
2024/03/28 08:21:14;;;;;;;;;;;;;;;;;;;;;
2024/03/28 08:25:05;;;;;;;2.20;0.70;;;;;;;14.09;66.50;97555.68;128442;1289;129704;-66
2024/03/28 08:29:10;;;;;;;1.50;0.70;;;;;;;14.10;66.49;97571.71;126942;1304;114980;-66
2024/03/28 08:33:02;;;;;;;;;;;;;;;;;;;;;
2024/03/28 08:36:49;;;;;;;;;;;;;;;;;;;;;
2024/03/28 08:40:51;;;;;;;5.60;1.60;;;;;;;13.82;65.43;97629.17;126226;1310;114942;-65
2024/03/28 08:44:51;;;;;;;3.20;1.30;;;;;;;13.69;65.45;97649.27;126203;1317;114817;-66
2024/03/28 08:53:19;;;;;;;4.50;1.90;;;;;;;13.42;65.69;97667.48;125935;1296;635852;-66
2024/03/28 08:57:12;;;;;;;;;;;;;;;;;;;;;
2024/03/28 09:01:09;;;;;;;;;;;;;;;;;;;;;
2024/03/28 09:05:15;;;;;;;1.50;0.70;;;;;;;13.02;65.65;97665.20;121680;1320;5542826;-66
2024/03/28 09:09:05;;;;;;;;;;;;;;;;;;;;;
2024/03/28 09:13:00;;;;;;;;;;;;;;;;;;;;;
2024/03/28 09:17:22;;;;;;;1.20;1.00;;;;;;;12.75;65.62;97687.61;126616;1294;636006;-64
2024/03/28 09:21:37;;;;;;;1.80;0.90;;;;;;;12.67;65.56;97695.13;129458;1270;129146;-65
2024/03/28 09:25:15;;;;;;;2.00;1.40;;;;;;;12.57;65.57;97705.37;128752;1277;115188;-66
2024/03/28 09:29:20;;;;;;;2.20;1.00;;;;;;;12.50;65.43;97712.48;124823;1277;5443088;-64
2024/03/28 09:33:19;;;;;;;2.40;0.90;;;;;;;12.44;66.03;97718.25;126928;1290;114833;-65
2024/03/28 09:37:21;;;;;;;2.50;1.20;;;;;;;12.45;65.91;97725.30;126321;1313;114939;-66
2024/03/28 09:45:50;;;;;;;4.50;1.00;;;;;;;12.40;65.81;97740.72;126280;1298;636082;-66
2024/03/28 09:49:53;;;;;;;1.60;0.60;;;;;;;12.34;65.59;97744.94;127740;1287;127859;-65
2024/03/28 09:53:50;;;;;;;;;;;;;;;;;;;;;
2024/03/28 09:57:43;;;;;;;9.00;3.60;;;;;;;12.35;65.87;97758.76;121430;1308;5470422;-65
2024/03/28 10:06:08;;;;;;;4.20;1.30;;;;;;;12.57;66.54;97764.46;125874;1296;636700;-65
2024/03/28 10:10:03;;;;;;;;;;;;;;;;;;;;;
2024/03/28 10:14:16;;;;;;;2.50;1.10;;;;;;;12.87;65.67;97770.60;128613;1277;114854;-66
2024/03/28 10:18:20;;;;;;;1.30;0.60;;;;;;;12.90;64.76;97766.73;123799;1292;5453155;-66
2024/03/28 10:22:21;;;;;;;1.30;0.60;;;;;;;12.96;64.30;97787.30;126155;1300;114898;-66
2024/03/28 10:26:14;;;;;;;;;;;;;;;;;;;;;
2024/03/28 10:30:52;;;;;;;6.10;1.90;;;;;;;13.19;64.21;97810.94;125891;1311;637536;-66
2024/03/28 10:34:57;;;;;;;1.70;0.90;;;;;;;13.40;63.96;97818.48;127913;1283;129139;-66
2024/03/28 10:38:52;;;;;;;4.00;1.40;;;;;;;13.61;63.71;97821.74;127018;1293;116313;-65
2024/03/28 10:42:56;;;;;;;10.60;4.20;;;;;;;13.85;63.44;97815.95;122858;1294;5423606;-66
2024/03/28 10:46:59;;;;;;;;;;;;;;;;;;;;;
2024/03/28 10:51:05;;;;;;;1.90;1.00;;;;;;;14.15;62.35;97813.15;125761;1311;114984;-66
2024/03/28 10:54:47;;;;;;;;;;;;;;;14.20;62.12;97809.71;125691;1312;114935;-65
2024/03/28 10:58:47;;;;;;;2.20;0.80;;;;;;;14.25;62.18;97810.07;125767;1300;129975;-64
2024/03/28 11:07:22;;;;;;;2.80;0.70;;;;;;;14.45;61.33;97822.04;125726;1300;638287;-68
2024/03/28 11:11:24;;;;;;;2.40;0.80;;;;;;;14.48;61.49;97823.09;127682;1286;128887;-65
2024/03/28 11:15:37;;;;;;;1.90;1.10;;;;;;;14.61;60.99;97823.40;126966;1303;116400;-66
2024/03/28 11:19:43;;;;;;;1.10;0.70;;;;;;;14.91;61.09;97820.05;122508;1305;5473681;-66
2024/03/28 11:23:22;;;;;;;;;;;;;;;15.20;60.12;97832.97;125861;1305;115067;-66
2024/03/28 11:32:05;;;;;;;1.60;0.90;;;;;;;15.64;59.48;97838.06;125951;1298;638494;-66
2024/03/28 11:36:08;;;;;;;1.50;0.60;;;;;;;15.74;59.12;97836.95;128879;1273;126807;-66
2024/03/28 11:40:10;;;;;;;4.50;1.10;;;;;;;15.62;58.26;97851.22;127632;1284;114962;-66
2024/03/28 11:44:05;;;;;;;4.90;0.90;;;;;;;15.41;57.70;97852.98;122428;1298;5625782;-66
2024/03/28 11:47:59;;;;;;;;;;;;;;;;;;;;;
2024/03/28 11:51:25;;;;;;;3.90;0.80;;;;;;;15.91;58.03;97862.45;125133;1309;114837;-67
2024/03/28 11:55:18;;;;;;;3.60;1.20;;;;;;;16.33;57.96;97867.91;125059;1305;129631;-67
2024/03/28 11:59:14;;;;;;;;;;;;;;;;;;;;;
2024/03/28 12:03:44;;;;;;;2.00;1.00;;;;;;;17.32;56.43;97873.64;126326;1295;640564;-67
2024/03/28 12:07:44;;;;;;;;;;;;;;;;;;;;;
2024/03/28 12:11:48;;;;;;;1.50;0.80;;;;;;;17.77;54.62;97875.98;127981;1278;114902;-66
2024/03/28 12:15:43;;;;;;;;;;;;;;;;;;;;;
2024/03/28 12:19:35;;;;;;;;;;;;;;;;;;;;;
2024/03/28 12:23:35;;;;;;;;;;;;;;;;;;;;;
2024/03/28 12:28:03;;;;;;;2.00;0.70;;;;;;;17.16;52.98;97890.73;126205;1306;637177;-67
2024/03/28 12:32:04;;;;;;;1.80;0.60;;;;;;;16.94;52.61;97900.88;127328;1285;126841;-66
2024/03/28 12:36:02;;;;;;;;;;;;;;;;;;;;;
2024/03/28 12:40:03;;;;;;;1.00;0.40;;;;;;;16.72;51.81;97912.58;121524;1326;5551908;-66
2024/03/28 12:48:34;;;;;;;2.10;0.70;;;;;;;17.00;51.60;97902.21;126004;1300;638809;-68
2024/03/28 13:00:57;;;;;;;1.60;0.50;;;;;;;17.75;49.18;97916.27;127719;1288;127705;-67
2024/03/28 13:04:54;;;;;;;0.70;0.40;;;;;;;17.74;48.71;97923.22;126787;1296;116422;-67
2024/03/28 13:08:47;;;;;;;;;;;;;;;;;;;;;
2024/03/28 13:12:48;;;;;;;;;;;;;;;;;;;;;
2024/03/28 13:17:21;;;;;;;0.80;0.30;;;;;;;17.45;46.89;97951.31;126135;1301;637070;-68
2024/03/28 13:21:28;;;;;;;0.90;0.30;;;;;;;17.25;46.61;97962.48;128946;1278;128834;-69
2024/03/28 13:25:34;;;;;;;;;;;;;;;;;;;;;
2024/03/28 13:29:59;;;;;;;1.30;0.40;;;;;;;16.81;46.45;97957.17;126145;1311;636906;-68
2024/03/28 13:33:53;;;;;;;;;;;;;;;;;;;;;
2024/03/28 13:37:54;;;;;;;;;;;;;;;;;;;;;
2024/03/28 13:41:55;;;;;;;3.10;0.50;;;;;;;16.32;46.84;97957.41;122334;1313;5436099;-68
2024/03/28 13:46:00;;;;;;;0.90;0.40;;;;;;;16.21;46.40;97945.07;125679;1314;114991;-68
2024/03/28 13:54:27;;;;;;;1.80;0.40;;;;;;;16.10;46.70;97954.33;126465;1298;636543;-68
2024/03/28 13:58:31;;;;;;;2.00;0.80;;;;;;;16.02;46.25;97964.66;128664;1279;127663;-67
2024/03/28 14:02:32;;;;;;;1.90;0.50;;;;;;;15.94;45.80;97961.53;128175;1282;115049;-68
2024/03/28 14:06:44;;;;;;;1.00;0.30;;;;;;;15.85;44.90;97958.34;123612;1284;5471456;-69
2024/03/28 14:10:28;;;;;;;1.10;0.50;;;;;;;15.77;45.27;97956.73;126156;1298;115005;-69
2024/03/28 14:14:30;;;;;;;3.00;0.60;;;;;;;15.72;45.06;97963.52;126038;1301;115074;-69
2024/03/28 14:18:21;;;;;;;;;;;;;;;;;;;;;
2024/03/28 14:22:18;;;;;;;0.80;0.30;;;;;;;15.60;44.56;97964.03;125260;1305;130266;-68
2024/03/28 14:30:23;;;;;;;0.60;0.20;;;;;;;15.50;43.93;97954.66;125972;1298;636209;-69
2024/03/28 14:38:32;;;;;;;1.60;0.40;;;;;;;15.38;43.42;97972.02;127654;1304;114761;-68
2024/03/28 14:42:23;;;;;;;1.80;0.60;;;;;;;15.32;43.28;97987.00;122371;1299;5540366;-68
2024/03/28 14:46:10;;;;;;;1.20;0.30;;;;;;;15.28;43.44;97995.27;125496;1320;114866;-67
2024/03/28 14:50:11;;;;;;;1.10;0.50;;;;;;;15.25;43.59;98000.06;125065;1326;114949;-67
2024/03/28 14:58:24;;;;;;;;;;;;;;;;;;;;;
2024/03/28 15:02:20;;;;;;;;;;;;;;;;;;;;;
2024/03/28 15:06:33;;;;;;;2.70;0.60;;;;;;;15.15;43.34;98014.70;127015;1291;114952;-68
2024/03/28 15:10:27;;;;;;;;;;;;;;;;;;;;;
2024/03/28 15:18:51;;;;;;;1.00;0.40;;;;;;;15.06;43.53;98031.88;126142;1298;639429;-67
2024/03/28 15:22:50;;;;;;;2.60;0.90;;;;;;;14.98;43.64;98036.80;128352;1283;129302;-66
2024/03/28 15:26:51;;;;;;;1.00;0.40;;;;;;;14.95;43.49;98038.90;127886;1283;114964;-66
2024/03/28 15:30:53;;;;;;;1.00;0.30;;;;;;;14.94;43.45;98049.42;124350;1284;5413232;-66
2024/03/28 15:34:45;;;;;;;1.00;0.50;;;;;;;14.93;43.18;98054.23;126916;1292;115019;-66
2024/03/28 15:38:38;;;;;;;;;;;;;;;;;;;;;
2024/03/28 15:47:14;;;;;;;1.40;0.60;;;;;;;14.87;43.31;98075.94;126486;1298;638627;-67
2024/03/28 15:51:10;;;;;;;;;;;;;;;;;;;;;
2024/03/28 15:54:54;;;;;;;;;;;;;;;;;;;;;
2024/03/28 15:59:21;;;;;;;1.10;0.60;;;;;;;14.98;43.72;98095.85;126236;1297;637103;-67
2024/03/28 16:03:15;;;;;;;;;;;;;;;;;;;;;
2024/03/28 16:07:28;;;;;;;1.40;0.60;;;;;;;15.01;43.71;98104.92;126593;1290;115271;-67
2024/03/28 16:11:23;;;;;;;;;;;;;;;;;;;;;
2024/03/28 16:19:48;;;;;;;3.00;0.90;;;;;;;15.07;43.73;98104.73;127150;1289;635422;-68
2024/03/28 16:23:35;;;;;;;;;;;;;;;;;;;;;
2024/03/28 16:28:00;;;;;;;2.50;0.80;;;;;;;15.00;43.94;98101.99;126980;1288;636149;-67
2024/03/28 16:32:01;;;;;;;2.50;1.10;;;;;;;14.92;43.93;98106.26;128706;1286;128931;-67
2024/03/28 16:36:04;;;;;;;2.40;1.60;;;;;;;14.86;44.17;98109.89;127537;1285;115241;-68
2024/03/28 16:39:27;;;;;;;2.80;0.70;;;;;;;14.81;44.16;98111.16;122998;1289;5441443;-69
2024/03/28 16:43:14;;;;;;;;;;;;;;;;;;;;;
2024/03/28 16:47:30;;;;;;;1.60;0.90;;;;;;;14.69;44.39;98111.97;126438;1295;114861;-68
2024/03/28 16:51:32;;;;;;;1.40;0.90;;;;;;;14.62;44.32;98117.19;125320;1302;129662;-67
2024/03/28 16:59:58;;;;;;;3.70;1.80;;;;;;;14.49;44.95;98134.88;125835;1297;638476;-68
2024/03/28 17:03:52;;;;;;;;;;;;;;;;;;;;;
2024/03/28 17:07:54;;;;;;;6.50;1.10;;;;;;;14.33;45.20;98154.23;126756;1310;114895;-66
2024/03/28 17:11:43;;;;;;;;;;;;;;;;;;;;;
2024/03/28 17:15:46;;;;;;;3.10;1.20;;;;;;;14.18;45.14;98160.70;125524;1307;114928;-68
2024/03/28 17:24:21;;;;;;;1.50;0.90;;;;;;;14.09;45.03;98177.94;125928;1301;638028;-68
2024/03/28 17:28:20;;;;;;;;;;;;;;;;;;;;;
2024/03/28 17:32:23;;;;;;;1.70;1.10;;;;;;;13.96;45.86;98201.79;127504;1287;114896;-68
2024/03/28 17:36:27;;;;;;;2.40;0.80;;;;;;;13.89;45.97;98199.64;122132;1302;5584231;-67
2024/03/28 17:44:46;;;;;;;2.40;0.70;;;;;;;13.74;46.31;98200.36;125816;1308;635778;-66
2024/03/28 17:48:42;;;;;;;;;;;;;;;;;;;;;
2024/03/28 17:52:45;;;;;;;3.10;0.90;;;;;;;13.49;46.62;98230.10;127680;1285;114910;-66
2024/03/28 17:56:37;;;;;;;1.40;0.60;;;;;;;13.37;46.77;98239.64;122299;1299;5361175;-66
2024/03/28 18:00:39;;;;;;;1.10;0.60;;;;;;;13.26;47.03;98242.90;125732;1305;115338;-67
2024/03/28 18:09:02;;;;;;;1.80;0.70;;;;;;;13.05;47.45;98255.76;126450;1296;635823;-66
2024/03/28 18:13:00;;;;;;;;;;;;;;;;;;;;;
2024/03/28 18:16:18;;;;;;;2.20;1.00;;;;;;;12.80;47.89;98277.20;128342;1277;115416;-66
2024/03/28 18:20:04;;;;;;;3.30;1.40;;;;;;;12.71;47.95;98281.61;129241;1267;114732;-66
2024/03/28 18:23:54;;;;;;;2.40;1.00;;;;;;;12.61;48.61;98282.84;126882;1264;115190;-65
2024/03/28 18:27:19;;;;;;;2.60;1.30;;;;;;;12.52;48.76;98292.27;129885;1282;114849;-65
2024/03/28 18:30:43;;;;;;;2.70;1.20;;;;;;;12.44;48.79;98306.73;129590;1263;114818;-67
2024/03/28 18:34:42;;;;;;;1.70;0.50;;;;;;;12.40;49.00;98313.76;129488;1267;128935;-67
2024/03/28 18:38:02;;;;;;;2.10;0.90;;;;;;;12.34;49.14;98326.23;129403;1270;114946;-64
2024/03/28 18:42:08;;;;;;;2.60;1.20;;;;;;;12.29;49.35;98332.23;129309;1270;114892;-64
2024/03/28 18:46:12;;;;;;;2.30;0.90;;;;;;;12.25;49.72;98334.37;129210;1270;115215;-66
2024/03/28 18:49:43;;;;;;;2.20;0.90;;;;;;;12.20;49.71;98338.25;128905;1286;114948;-66
2024/03/28 18:53:37;;;;;;;2.10;0.80;;;;;;;12.15;49.66;98341.11;129111;1272;128896;-65
2024/03/28 18:57:26;;;;;;;;;;;;;;;;;;;;;
2024/03/28 19:01:35;;;;;;;;;;;;;;;;;;;;;
2024/03/28 19:05:37;;;;;;;3.10;1.20;;;;;;;12.06;49.61;98377.68;127234;1302;114967;-66
2024/03/28 19:09:32;;;;;;;;;;;;;;;;;;;;;
2024/03/28 19:13:47;;;;;;;2.40;1.00;;;;;;;12.03;50.26;98385.96;126125;1309;635728;-66
2024/03/28 19:17:51;;;;;;;2.40;1.10;;;;;;;11.98;50.17;98392.30;128440;1277;128587;-65
2024/03/28 19:21:38;;;;;;;;;;;;;;;;;;;;;
2024/03/28 19:25:17;;;;;;;2.10;0.90;;;;;;;11.91;50.05;98408.14;124976;1281;5431360;-66
2024/03/28 19:28:55;;;;;;;2.90;0.90;;;;;;;11.88;50.12;98421.09;127066;1289;114881;-65
2024/03/28 19:32:26;;;;;;;;;;;;;;;;;;;;;
2024/03/28 19:36:30;;;;;;;3.50;0.90;;;;;;;11.83;50.14;98436.86;126898;1290;127921;-67
2024/03/28 19:40:13;;;;;;;;;;;;;;;;;;;;;
2024/03/28 19:44:00;;;;;;;;;;;;;;;;;;;;;
2024/03/28 19:47:56;;;;;;;;;;;;;;;;;;;;;
2024/03/28 19:51:56;;;;;;;;;;;;;;;;;;;;;
2024/03/28 19:56:24;;;;;;;;;;;;;;;;;;;;;
2024/03/28 20:00:22;;;;;;;1.50;0.50;;;;;;;11.71;49.62;98399.11;128882;1274;128133;-67
2024/03/28 20:03:49;;;;;;;1.70;0.70;;;;;;;11.68;49.42;98396.80;129001;1274;114808;-66
2024/03/28 20:07:31;;;;;;;1.50;0.50;;;;;;;11.66;49.42;98411.45;129505;1268;114762;-67
2024/03/28 20:11:23;;;;;;;1.90;0.60;;;;;;;11.63;49.67;98420.48;125660;1281;114742;-66
2024/03/28 20:14:34;;;;;;;1.80;1.00;;;;;;;11.60;49.55;98422.52;129061;1274;115449;-64
2024/03/28 20:18:31;;;;;;;2.30;1.00;;;;;;;11.58;49.90;98424.48;129993;1260;114845;-65
2024/03/28 20:22:08;;;;;;;2.20;0.90;;;;;;;11.56;50.10;98424.30;128946;1270;128680;-67
2024/03/28 20:29:57;;;;;;;;;;;;;;;;;;;;;
2024/03/28 20:33:54;;;;;;;;;;;;;;;;;;;;;
2024/03/28 20:38:03;;;;;;;2.40;1.00;;;;;;;11.35;50.29;98438.38;127734;1296;114883;-65
2024/03/28 20:41:55;;;;;;;3.90;1.40;;;;;;;11.29;50.55;98448.17;128453;1277;128463;-65
2024/03/28 20:44:57;;;;;;;2.40;1.10;;;;;;;11.25;51.01;98460.80;127900;1278;114926;-64
2024/03/28 20:48:39;;;;;;;2.90;1.60;;;;;;;11.21;51.11;98466.66;127895;1283;115425;-66
2024/03/28 20:52:14;;;;;;;3.00;1.40;;;;;;;11.18;51.08;98474.08;128296;1288;114852;-64
2024/03/28 20:56:23;;;;;;;4.40;2.20;;;;;;;11.15;51.68;98473.21;128043;1290;114990;-66
2024/03/28 20:59:58;;;;;;;;;;;;;;;;;;;;;
2024/03/28 21:03:34;;;;;;;3.50;1.40;;;;;;;11.10;51.83;98478.11;129113;1276;114908;-65
2024/03/28 21:11:26;;;;;;;3.70;2.00;;;;;;;11.04;51.99;98487.89;128152;1280;114791;-66
2024/03/28 21:15:13;;;;;;;3.20;1.70;;;;;;;10.99;52.26;98498.25;128119;1296;114860;-65
2024/03/28 21:19:26;;;;;;;3.30;1.30;;;;;;;10.95;52.12;98514.86;127348;1288;128009;-65
2024/03/28 21:23:23;;;;;;;3.00;1.10;;;;;;;10.91;52.38;98530.16;127165;1292;114936;-65
2024/03/28 21:27:11;;;;;;;;;;;;;;;;;;;;;
2024/03/28 21:31:07;;;;;;;4.00;1.60;;;;;;;10.84;52.94;98539.15;126347;1310;114831;-63
2024/03/28 21:35:02;;;;;;;;;;;;;;;;;;;;;
2024/03/28 21:38:33;;;;;;;2.10;0.90;;;;;;;10.77;53.46;98556.27;125021;1301;127845;-63
2024/03/28 21:41:47;;;;;;;4.30;1.50;;;;;;;10.74;53.63;98564.57;124882;1326;114953;-63
2024/03/28 21:45:40;;;;;;;2.30;0.90;;;;;;;10.71;53.66;98572.45;125308;1315;114995;-63
2024/03/28 21:49:27;;;;;;;2.60;1.00;;;;;;;10.67;53.98;98577.79;125401;1312;115023;-63